createdAt,value
2019-06-26T00:00:47.447Z,12.40
2019-06-26T00:03:16.859Z,11.70
2019-06-26T00:05:46.325Z,12.03
2019-06-26T00:08:15.665Z,13.20
2019-06-26T00:10:45.171Z,13.87
2019-06-26T00:13:25.815Z,12.93
2019-06-26T00:15:45.608Z,13.90
2019-06-26T00:18:14.934Z,13.17
2019-06-26T00:20:44.513Z,13.57
2019-06-26T00:23:13.835Z,12.53
2019-06-26T00:25:43.285Z,13.90
2019-06-26T00:28:12.610Z,13.20
2019-06-26T00:30:42.305Z,13.73
2019-06-26T00:33:13.054Z,13.17
2019-06-26T00:35:42.771Z,12.37
2019-06-26T00:38:12.214Z,13.80
2019-06-26T00:40:41.627Z,13.93
2019-06-26T00:43:11.090Z,13.27
2019-06-26T00:45:43.162Z,14.30
2019-06-26T00:48:12.565Z,14.13
2019-06-26T00:50:42.022Z,12.70
2019-06-26T00:53:11.452Z,13.83
2019-06-26T00:55:40.933Z,13.73
2019-06-26T00:58:10.359Z,13.60
2019-06-26T01:00:44.426Z,13.53
2019-06-26T01:03:13.868Z,12.77
2019-06-26T01:05:43.333Z,14.00
2019-06-26T01:08:12.797Z,13.30
2019-06-26T01:10:42.332Z,13.57
2019-06-26T01:13:11.678Z,13.30
2019-06-26T01:15:41.144Z,14.77
2019-06-26T01:18:10.574Z,14.13
2019-06-26T01:20:39.934Z,12.97
2019-06-26T01:23:09.309Z,12.67
2019-06-26T01:25:38.759Z,13.57
2019-06-26T01:28:08.192Z,14.23
2019-06-26T01:30:37.642Z,13.73
2019-06-26T01:33:07.086Z,13.67
2019-06-26T01:35:36.529Z,15.63
2019-06-26T01:38:05.977Z,14.30
2019-06-26T01:40:35.536Z,14.63
2019-06-26T01:43:04.869Z,12.70
2019-06-26T01:45:34.323Z,15.70
2019-06-26T01:48:03.779Z,14.80
2019-06-26T01:50:33.227Z,14.93
2019-06-26T01:53:02.641Z,14.40
2019-06-26T01:55:32.055Z,13.23
2019-06-26T01:58:01.513Z,15.00
2019-06-26T02:00:30.911Z,14.93
2019-06-26T02:03:00.318Z,15.47
2019-06-26T02:05:29.666Z,15.57
2019-06-26T02:07:59.331Z,14.80
2019-06-26T02:10:28.665Z,14.67
2019-06-26T02:12:58.106Z,15.90
2019-06-26T02:15:27.471Z,15.60
2019-06-26T02:17:56.962Z,14.33
2019-06-26T02:20:26.454Z,13.80
2019-06-26T02:22:55.964Z,14.47
2019-06-26T02:25:25.487Z,16.27
2019-06-26T02:27:55.139Z,15.20
2019-06-26T02:30:24.623Z,15.53
2019-06-26T02:32:54.117Z,14.17
2019-06-26T02:35:23.450Z,15.10
2019-06-26T02:37:54.337Z,14.53
2019-06-26T02:40:23.889Z,16.43
2019-06-26T02:42:53.296Z,14.43
2019-06-26T02:45:22.705Z,16.63
2019-06-26T02:47:52.148Z,16.97
2019-06-26T02:50:21.473Z,15.10
2019-06-26T02:52:50.848Z,16.23
2019-06-26T02:55:20.226Z,16.00
2019-06-26T02:57:49.707Z,15.73
2019-06-26T03:00:19.266Z,16.77
2019-06-26T03:02:48.696Z,16.80
2019-06-26T03:05:18.080Z,16.30
2019-06-26T03:07:47.501Z,17.73
2019-06-26T03:10:17.141Z,17.10
2019-06-26T03:12:46.791Z,17.10
2019-06-26T03:15:16.328Z,17.63
2019-06-26T03:17:55.169Z,16.43
2019-06-26T03:20:20.112Z,15.80
2019-06-26T03:22:50.636Z,16.63
2019-06-26T03:25:20.032Z,17.50
2019-06-26T03:27:49.615Z,18.83
2019-06-26T03:30:20.035Z,16.47
2019-06-26T03:32:49.461Z,17.47
2019-06-26T03:35:18.896Z,17.47
2019-06-26T03:37:48.202Z,17.33
2019-06-26T03:40:18.351Z,17.60
2019-06-26T03:42:47.782Z,18.00
2019-06-26T03:45:25.816Z,17.77
2019-06-26T03:47:48.993Z,17.50
2019-06-26T03:50:18.657Z,18.57
2019-06-26T03:52:48.073Z,17.47
2019-06-26T03:55:17.762Z,17.17
2019-06-26T03:57:47.143Z,17.03
2019-06-26T04:00:21.117Z,17.57
2019-06-26T04:02:50.621Z,17.13
2019-06-26T04:05:20.097Z,17.83
2019-06-26T04:07:49.517Z,16.70
2019-06-26T04:10:18.998Z,18.13
2019-06-26T04:12:49.525Z,18.03
2019-06-26T04:15:18.894Z,17.27
2019-06-26T04:17:48.305Z,17.70
2019-06-26T04:20:17.772Z,18.53
2019-06-26T04:22:47.767Z,18.17
2019-06-26T04:25:17.512Z,17.50
2019-06-26T04:27:46.977Z,19.07
2019-06-26T04:30:17.152Z,17.90
2019-06-26T04:32:46.637Z,17.13
2019-06-26T04:35:16.189Z,18.73
2019-06-26T04:37:45.524Z,16.63
2019-06-26T04:40:15.467Z,18.80
2019-06-26T04:42:46.593Z,18.33
2019-06-26T04:45:16.808Z,17.90
2019-06-26T04:47:46.351Z,16.70
2019-06-26T04:50:17.873Z,18.57
2019-06-26T04:52:47.513Z,18.93
2019-06-26T04:55:17.093Z,19.20
2019-06-26T04:57:46.599Z,17.40
2019-06-26T05:00:17.644Z,18.03
2019-06-26T05:02:52.506Z,16.90
2019-06-26T05:05:38.199Z,17.20
2019-06-26T05:07:53.860Z,18.40
2019-06-26T05:10:26.111Z,18.17
2019-06-26T05:12:58.402Z,17.77
2019-06-26T05:15:29.644Z,17.50
2019-06-26T05:17:59.254Z,16.73
2019-06-26T05:20:28.672Z,17.40
2019-06-26T05:22:58.182Z,16.50
2019-06-26T05:25:27.651Z,16.87
2019-06-26T05:27:57.015Z,16.80
2019-06-26T05:30:26.538Z,17.87
2019-06-26T05:32:56.153Z,18.20
2019-06-26T05:35:25.586Z,17.07
2019-06-26T05:37:55.198Z,17.23
2019-06-26T05:40:24.789Z,16.13
2019-06-26T05:42:54.729Z,17.70
2019-06-26T05:45:24.465Z,16.10
2019-06-26T05:47:54.122Z,17.07
2019-06-26T05:50:23.956Z,17.07
2019-06-26T05:52:53.495Z,18.17
2019-06-26T05:55:23.106Z,17.13
2019-06-26T05:57:55.093Z,17.40
2019-06-26T06:00:24.875Z,16.90
2019-06-26T06:02:56.783Z,16.57
2019-06-26T06:05:26.410Z,16.37
2019-06-26T06:07:55.832Z,17.20
2019-06-26T06:10:25.181Z,17.30
2019-06-26T06:12:54.658Z,16.13
2019-06-26T06:15:25.198Z,16.83
2019-06-26T06:17:54.659Z,15.80
2019-06-26T06:20:31.306Z,15.37
2019-06-26T06:23:01.709Z,17.07
2019-06-26T06:25:33.345Z,14.47
2019-06-26T06:28:02.709Z,14.83
2019-06-26T06:30:32.228Z,15.00
2019-06-26T06:33:01.544Z,15.57
2019-06-26T06:35:30.942Z,14.60
2019-06-26T06:38:00.383Z,14.70
2019-06-26T06:40:29.796Z,15.50
2019-06-26T06:43:00.289Z,15.50
2019-06-26T06:45:29.909Z,15.40
2019-06-26T06:47:59.373Z,15.20
2019-06-26T06:50:28.835Z,16.03
2019-06-26T06:52:58.266Z,15.03
2019-06-26T06:55:27.668Z,15.67
2019-06-26T06:57:57.209Z,14.73
2019-06-26T07:00:26.867Z,16.30
2019-06-26T07:02:56.311Z,14.63
2019-06-26T07:05:25.798Z,16.23
2019-06-26T07:07:55.215Z,16.20
2019-06-26T07:10:24.941Z,16.93
2019-06-26T07:12:54.373Z,14.70
2019-06-26T07:15:24.312Z,14.77
2019-06-26T07:17:53.941Z,15.37
2019-06-26T07:20:23.297Z,14.80
2019-06-26T07:22:52.712Z,14.00
2019-06-26T07:25:23.548Z,14.23
2019-06-26T07:27:53.167Z,13.97
2019-06-26T07:30:22.979Z,15.10
2019-06-26T07:32:52.487Z,13.70
2019-06-26T07:35:22.035Z,9.97
2019-06-26T07:37:51.728Z,11.43
2019-06-26T07:40:22.987Z,10.90
2019-06-26T07:42:52.607Z,10.27
2019-06-26T07:45:24.144Z,10.93
2019-06-26T07:47:53.780Z,10.03
2019-06-26T07:50:23.823Z,9.03
2019-06-26T07:52:53.258Z,9.40
2019-06-26T07:55:22.975Z,8.80
2019-06-26T07:57:52.236Z,9.20
2019-06-26T08:00:22.042Z,9.00
2019-06-26T08:02:51.781Z,8.20
2019-06-26T08:05:21.271Z,8.23
2019-06-26T08:07:50.697Z,9.33
2019-06-26T08:10:20.336Z,9.20
2019-06-26T08:12:49.735Z,8.77
2019-06-26T08:15:19.758Z,8.80
2019-06-26T08:17:59.787Z,8.63
2019-06-26T08:20:20.819Z,9.00
2019-06-26T08:22:50.208Z,8.73
2019-06-26T08:25:19.736Z,9.00
2019-06-26T08:27:49.592Z,9.93
2019-06-26T08:30:19.805Z,8.50
2019-06-26T08:32:49.118Z,8.47
2019-06-26T08:35:18.755Z,9.50
2019-06-26T08:37:48.113Z,9.10
2019-06-26T08:40:17.865Z,8.70
2019-06-26T08:42:47.217Z,8.60
2019-06-26T08:45:16.869Z,9.00
2019-06-26T08:47:46.287Z,8.70
2019-06-26T08:50:16.309Z,9.20
2019-06-26T08:52:46.380Z,8.67
2019-06-26T08:55:15.852Z,9.50
2019-06-26T08:57:45.422Z,8.67
2019-06-26T09:00:15.415Z,8.93
2019-06-26T09:02:44.858Z,9.33
2019-06-26T09:05:14.753Z,9.43
2019-06-26T09:07:44.292Z,10.00
2019-06-26T09:10:14.386Z,9.20
2019-06-26T09:13:02.558Z,9.20
2019-06-26T09:15:32.034Z,8.60
2019-06-26T09:18:07.517Z,9.50
2019-06-26T09:20:41.962Z,9.30
2019-06-26T09:23:13.200Z,8.80
2019-06-26T09:25:42.955Z,8.23
2019-06-26T09:28:15.855Z,8.50
2019-06-26T09:30:47.569Z,8.80
2019-06-26T09:33:20.919Z,8.13
2019-06-26T09:35:50.885Z,8.20
2019-06-26T09:38:20.537Z,7.90
2019-06-26T09:40:50.298Z,7.50
2019-06-26T09:43:19.857Z,7.40
2019-06-26T09:45:49.388Z,8.27
2019-06-26T09:48:21.209Z,8.60
2019-06-26T09:50:52.781Z,8.43
2019-06-26T09:53:22.057Z,8.17
2019-06-26T09:55:51.407Z,8.00
2019-06-26T09:58:23.901Z,7.30
2019-06-26T10:00:53.462Z,7.37
2019-06-26T10:03:22.865Z,7.20
2019-06-26T10:05:52.279Z,6.83
2019-06-26T10:08:21.903Z,6.47
2019-06-26T10:10:51.563Z,8.10
2019-06-26T10:13:21.084Z,7.50
2019-06-26T10:15:50.864Z,7.23
2019-06-26T10:18:20.212Z,7.70
2019-06-26T10:20:49.570Z,9.50
2019-06-26T10:23:19.103Z,7.70
2019-06-26T10:25:48.614Z,8.40
2019-06-26T10:28:18.052Z,8.17
2019-06-26T10:30:47.474Z,7.70
2019-06-26T10:33:16.823Z,8.10
2019-06-26T10:35:46.260Z,7.63
2019-06-26T10:38:16.766Z,7.37
2019-06-26T10:40:46.216Z,6.70
2019-06-26T10:43:15.692Z,8.03
2019-06-26T10:45:47.454Z,8.60
2019-06-26T10:48:16.904Z,8.10
2019-06-26T10:50:58.399Z,7.20
2019-06-26T10:53:25.983Z,7.40
2019-06-26T10:55:55.786Z,8.00
2019-06-26T10:58:25.428Z,7.97
2019-06-26T11:00:54.921Z,8.20
2019-06-26T11:03:24.318Z,7.73
2019-06-26T11:05:56.009Z,7.83
2019-06-26T11:08:25.518Z,8.17
2019-06-26T11:10:54.935Z,7.87
2019-06-26T11:13:24.411Z,8.20
2019-06-26T11:15:53.883Z,7.57
2019-06-26T11:18:23.573Z,8.63
2019-06-26T11:20:52.949Z,7.60
2019-06-26T11:23:23.444Z,7.57
2019-06-26T11:25:52.885Z,8.87
2019-06-26T11:28:22.259Z,7.50
2019-06-26T11:30:51.710Z,7.63
2019-06-26T11:33:21.143Z,8.57
2019-06-26T11:35:50.755Z,8.77
2019-06-26T11:38:20.203Z,8.60
2019-06-26T11:40:49.699Z,8.00
2019-06-26T11:43:21.365Z,8.20
2019-06-26T11:45:51.250Z,8.07
2019-06-26T11:48:20.924Z,8.80
2019-06-26T11:50:50.387Z,8.63
2019-06-26T11:53:19.877Z,7.40
2019-06-26T11:55:49.457Z,7.60
2019-06-26T11:58:19.955Z,8.10
2019-06-26T12:00:49.241Z,7.67
2019-06-26T12:03:18.587Z,8.30
2019-06-26T12:05:48.003Z,8.93
2019-06-26T12:08:18.542Z,8.83
2019-06-26T12:10:54.034Z,8.97
2019-06-26T12:13:19.516Z,8.27
2019-06-26T12:15:48.987Z,8.20
2019-06-26T12:18:19.871Z,8.40
2019-06-26T12:20:51.594Z,7.80
2019-06-26T12:23:26.239Z,7.97
2019-06-26T12:25:57.383Z,8.13
2019-06-26T12:28:39.252Z,8.37
2019-06-26T12:31:26.790Z,8.17
2019-06-26T12:34:19.705Z,8.17
2019-06-26T12:36:40.200Z,8.03
2019-06-26T12:39:28.348Z,9.93
2019-06-26T12:41:59.644Z,8.70
2019-06-26T12:44:29.150Z,7.87
2019-06-26T12:46:59.213Z,8.07
2019-06-26T12:49:28.818Z,7.40
2019-06-26T12:51:58.464Z,7.40
2019-06-26T12:54:27.955Z,7.43
2019-06-26T12:56:57.618Z,6.83
2019-06-26T12:59:26.967Z,6.80
2019-06-26T13:01:56.494Z,7.00
2019-06-26T13:04:25.896Z,7.10
2019-06-26T13:06:58.749Z,7.60
2019-06-26T13:09:28.250Z,6.77
2019-06-26T13:11:57.642Z,6.80
2019-06-26T13:14:27.027Z,6.93
2019-06-26T13:16:56.419Z,6.73
2019-06-26T13:19:25.838Z,6.43
2019-06-26T13:21:55.314Z,6.60
2019-06-26T13:24:24.725Z,6.60
2019-06-26T13:26:54.709Z,6.50
2019-06-26T13:29:25.041Z,5.57
2019-06-26T13:31:54.764Z,6.80
2019-06-26T13:34:25.893Z,5.70
2019-06-26T13:36:57.701Z,5.90
2019-06-26T13:39:29.351Z,5.63
2019-06-26T13:42:00.478Z,5.83
2019-06-26T13:44:31.503Z,6.00
2019-06-26T13:47:01.094Z,6.43
2019-06-26T13:49:36.024Z,5.60
2019-06-26T13:52:14.161Z,5.70
2019-06-26T13:54:52.130Z,5.60
2019-06-26T13:57:21.700Z,6.57
2019-06-26T13:59:56.144Z,6.53
2019-06-26T14:02:26.379Z,6.30
2019-06-26T14:05:03.655Z,6.23
2019-06-26T14:07:35.527Z,6.30
2019-06-26T14:10:15.670Z,5.87
2019-06-26T14:16:24.648Z,6.07
2019-06-26T14:19:12.948Z,5.73
2019-06-26T14:22:14.284Z,6.57
2019-06-26T14:25:50.964Z,5.73
2019-06-26T14:28:23.642Z,5.90
2019-06-26T14:31:47.014Z,6.30
2019-06-26T14:34:34.596Z,6.20
2019-06-26T14:37:57.483Z,6.37
2019-06-26T14:40:47.072Z,6.40
2019-06-26T14:43:24.001Z,5.63
2019-06-26T14:46:14.900Z,6.30
2019-06-26T14:48:51.954Z,6.00
2019-06-26T14:51:41.851Z,5.80
2019-06-26T14:57:32.675Z,6.03
2019-06-26T15:03:17.196Z,5.87
2019-06-26T15:05:49.530Z,6.70
2019-06-26T15:08:19.187Z,6.30
2019-06-26T15:11:09.010Z,5.80
2019-06-26T15:14:01.577Z,5.80
2019-06-26T15:23:16.729Z,6.87
2019-06-26T15:25:50.268Z,7.03
2019-06-26T15:28:30.980Z,6.70
2019-06-26T15:31:07.569Z,6.10
2019-06-26T15:33:39.633Z,7.63
2019-06-26T15:36:08.880Z,7.07
2019-06-26T15:38:38.550Z,7.10
2019-06-26T15:41:21.599Z,6.60
2019-06-26T15:44:02.492Z,7.30
2019-06-26T15:46:44.653Z,7.47
2019-06-26T15:49:14.102Z,6.83
2019-06-26T15:51:43.632Z,7.00
2019-06-26T15:54:31.659Z,7.87
2019-06-26T15:57:01.129Z,8.03
2019-06-26T15:59:31.228Z,7.63
2019-06-26T16:02:07.334Z,7.07
2019-06-26T16:04:37.505Z,7.70
2019-06-26T16:07:16.054Z,7.30
2019-06-26T16:09:45.550Z,7.83
2019-06-26T16:12:16.963Z,7.80
2019-06-26T16:14:46.544Z,8.00
2019-06-26T16:17:26.164Z,7.60
2019-06-26T16:19:55.590Z,7.93
2019-06-26T16:22:32.063Z,7.37
2019-06-26T16:24:57.527Z,7.30
2019-06-26T16:27:27.038Z,8.70
2019-06-26T16:29:59.304Z,7.97
2019-06-26T16:32:28.749Z,9.87
2019-06-26T16:34:58.360Z,8.40
2019-06-26T16:37:30.036Z,8.30
2019-06-26T16:39:59.592Z,7.90
2019-06-26T16:42:28.909Z,8.60
2019-06-26T16:44:58.368Z,8.73
2019-06-26T16:47:27.745Z,7.73
2019-06-26T16:50:01.915Z,8.20
2019-06-26T16:52:44.602Z,8.50
2019-06-26T16:55:05.401Z,8.77
2019-06-26T16:57:35.163Z,8.87
2019-06-26T17:00:09.827Z,8.30
2019-06-26T17:02:36.308Z,9.00
2019-06-26T17:05:05.819Z,8.20
2019-06-26T17:07:35.241Z,9.10
2019-06-26T17:10:05.383Z,8.70
2019-06-26T17:12:34.804Z,9.80
2019-06-26T17:15:04.416Z,8.70
2019-06-26T17:17:36.316Z,8.57
2019-06-26T17:20:24.941Z,8.83
2019-06-26T17:23:04.988Z,9.20
2019-06-26T17:25:25.698Z,9.63
2019-06-26T17:27:55.037Z,9.60
2019-06-26T17:30:24.530Z,8.80
2019-06-26T17:32:53.927Z,8.40
2019-06-26T17:35:23.223Z,9.17
2019-06-26T17:37:52.761Z,9.23
2019-06-26T17:40:22.379Z,10.43
2019-06-26T17:42:53.511Z,9.60
2019-06-26T17:45:24.041Z,9.50
2019-06-26T17:47:56.467Z,9.50
2019-06-26T17:50:26.981Z,8.97
2019-06-26T17:52:56.860Z,9.33
2019-06-26T17:55:27.829Z,9.97
2019-06-26T17:57:57.709Z,9.70
2019-06-26T18:00:30.945Z,9.40
2019-06-26T18:03:00.818Z,10.07
2019-06-26T18:05:30.761Z,9.93
2019-06-26T18:08:00.566Z,10.97
2019-06-26T18:10:30.652Z,11.20
2019-06-26T18:13:00.482Z,11.33
2019-06-26T18:15:30.918Z,11.10
2019-06-26T18:18:00.987Z,11.50
2019-06-26T18:20:30.619Z,11.90
2019-06-26T18:23:07.292Z,11.30
2019-06-26T18:25:32.359Z,11.27
2019-06-26T18:28:02.250Z,12.17
2019-06-26T18:30:31.944Z,11.57
2019-06-26T18:33:01.802Z,11.30
2019-06-26T18:35:31.651Z,11.87
2019-06-26T18:38:01.533Z,12.90
2019-06-26T18:40:31.373Z,10.87
2019-06-26T18:43:01.226Z,11.60
2019-06-26T18:45:30.908Z,11.50
2019-06-26T18:48:04.936Z,12.83
2019-06-26T18:50:35.197Z,12.00
2019-06-26T18:53:06.093Z,12.63
2019-06-26T18:55:36.087Z,10.63
2019-06-26T18:58:10.662Z,12.43
2019-06-26T19:00:42.484Z,12.10
2019-06-26T19:03:14.028Z,12.43
2019-06-26T19:05:43.990Z,11.50
2019-06-26T19:08:14.536Z,11.10
2019-06-26T19:10:44.334Z,11.00
2019-06-26T19:13:14.727Z,11.97
2019-06-26T19:15:45.629Z,10.97
2019-06-26T19:18:15.502Z,12.50
2019-06-26T19:20:46.814Z,11.03
2019-06-26T19:23:17.491Z,11.27
2019-06-26T19:25:47.557Z,11.63
2019-06-26T19:28:18.398Z,12.27
2019-06-26T19:30:49.626Z,11.00
2019-06-26T19:33:21.365Z,12.77
2019-06-26T19:35:51.210Z,10.57
2019-06-26T19:38:21.333Z,11.70
2019-06-26T19:40:52.615Z,11.40
2019-06-26T19:43:22.496Z,11.07
2019-06-26T19:45:57.083Z,11.37
2019-06-26T19:48:30.575Z,11.50
2019-06-26T19:51:00.797Z,11.90
2019-06-26T19:53:30.372Z,11.40
2019-06-26T19:56:00.082Z,11.53
2019-06-26T19:58:29.638Z,12.40
2019-06-26T20:00:59.122Z,10.90
2019-06-26T20:03:28.649Z,11.47
2019-06-26T20:05:58.320Z,11.70
2019-06-26T20:08:27.780Z,10.90
2019-06-26T20:10:57.223Z,11.30
2019-06-26T20:13:26.701Z,11.20
2019-06-26T20:15:56.138Z,12.30
2019-06-26T20:18:25.619Z,12.03
2019-06-26T20:20:55.120Z,13.03
2019-06-26T20:23:24.557Z,11.03
2019-06-26T20:25:58.019Z,11.70
2019-06-26T20:28:51.606Z,12.60
2019-06-26T20:31:21.073Z,11.90
2019-06-26T20:33:50.530Z,11.63
2019-06-26T20:36:19.865Z,12.17
2019-06-26T20:38:49.341Z,12.07
2019-06-26T20:41:20.826Z,12.40
2019-06-26T20:43:50.338Z,13.57
2019-06-26T20:46:22.505Z,12.63
2019-06-26T20:48:52.105Z,13.40
2019-06-26T20:51:21.392Z,13.73
2019-06-26T20:53:50.848Z,13.23
2019-06-26T20:56:20.203Z,12.17
2019-06-26T20:58:49.705Z,12.67
2019-06-26T21:01:19.130Z,11.83
2019-06-26T21:03:57.983Z,13.00
2019-06-26T21:06:27.469Z,12.57
2019-06-26T21:08:56.969Z,13.10
2019-06-26T21:11:26.344Z,11.93
2019-06-26T21:13:56.984Z,12.10
2019-06-26T21:16:26.718Z,11.53
2019-06-26T21:18:56.566Z,12.27
2019-06-26T21:21:26.226Z,11.93
2019-06-26T21:23:55.716Z,12.13
2019-06-26T21:26:27.228Z,11.90
2019-06-26T21:28:56.893Z,12.90
2019-06-26T21:31:26.502Z,13.47
2019-06-26T21:33:55.908Z,13.00
2019-06-26T21:36:25.769Z,12.07
2019-06-26T21:38:55.534Z,12.80
2019-06-26T21:41:25.042Z,12.03
2019-06-26T21:43:54.480Z,11.17
2019-06-26T21:46:23.968Z,11.30
2019-06-26T21:48:53.326Z,11.37
2019-06-26T21:51:22.744Z,11.40
2019-06-26T21:53:52.830Z,11.40
2019-06-26T21:56:22.989Z,11.77
2019-06-26T21:58:52.449Z,10.70
2019-06-26T22:01:22.143Z,10.43
2019-06-26T22:03:51.533Z,10.43
2019-06-26T22:06:23.273Z,10.67
2019-06-26T22:08:52.705Z,9.57
2019-06-26T22:11:22.437Z,9.80
2019-06-26T22:13:51.844Z,11.00
2019-06-26T22:16:21.983Z,10.70
2019-06-26T22:18:52.246Z,10.37
2019-06-26T22:21:21.701Z,10.10
2019-06-26T22:23:51.015Z,11.93
2019-06-26T22:26:20.397Z,10.57
2019-06-26T22:28:49.735Z,10.10
2019-06-26T22:31:19.153Z,9.00
2019-06-26T22:33:48.527Z,9.87
2019-06-26T22:36:18.025Z,8.93
2019-06-26T22:38:47.416Z,9.30
2019-06-26T22:41:16.814Z,10.67
2019-06-26T22:43:46.170Z,11.77
2019-06-26T22:46:15.891Z,11.97
2019-06-26T22:48:45.319Z,11.77
2019-06-26T22:51:15.088Z,11.33
2019-06-26T22:53:44.450Z,10.90
2019-06-26T22:56:13.994Z,10.73
2019-06-26T22:58:43.466Z,10.77
2019-06-26T23:01:12.901Z,11.30
2019-06-26T23:03:42.372Z,11.00
2019-06-26T23:06:11.820Z,11.00
2019-06-26T23:08:41.256Z,11.03
2019-06-26T23:11:10.621Z,11.87
2019-06-26T23:13:39.986Z,10.33
2019-06-26T23:16:09.375Z,10.20
2019-06-26T23:18:38.853Z,9.60
2019-06-26T23:21:08.256Z,9.40
2019-06-26T23:23:37.697Z,8.90
2019-06-26T23:26:22.688Z,8.50
2019-06-26T23:28:38.258Z,9.03
2019-06-26T23:31:07.696Z,8.73
2019-06-26T23:33:37.150Z,9.37
2019-06-26T23:36:06.418Z,8.87
2019-06-26T23:38:35.706Z,8.80
2019-06-26T23:41:05.045Z,8.60
2019-06-26T23:43:34.441Z,8.70
2019-06-26T23:46:03.860Z,8.60
2019-06-26T23:48:33.244Z,7.70
2019-06-26T23:51:02.677Z,8.63
2019-06-26T23:53:32.104Z,8.70
2019-06-26T23:56:01.503Z,9.33
2019-06-26T23:58:30.918Z,8.70
